createdAt,value
2022-09-23T00:01:14.813Z,93.42
2022-09-23T00:03:45.528Z,93.99
2022-09-23T00:06:21.068Z,93.66
2022-09-23T00:08:51.220Z,94.74
2022-09-23T00:11:23.711Z,95.07
2022-09-23T00:13:53.334Z,94.67
2022-09-23T00:16:28.979Z,94.94
2022-09-23T00:18:56.578Z,95.02
2022-09-23T00:21:25.057Z,95.95
2022-09-23T00:23:52.220Z,96.32
2022-09-23T00:26:21.622Z,96.21
2022-09-23T00:28:48.855Z,96.45
2022-09-23T00:31:22.236Z,96.13
2022-09-23T00:33:57.296Z,97.00
2022-09-23T00:36:25.623Z,96.66
2022-09-23T00:38:53.104Z,96.51
2022-09-23T00:41:21.353Z,97.00
2022-09-23T00:43:57.827Z,96.63
2022-09-23T00:46:51.389Z,96.33
2022-09-23T00:49:29.991Z,96.54
2022-09-23T00:52:03.375Z,97.76
2022-09-23T00:54:31.156Z,97.59
2022-09-23T00:56:59.904Z,97.24
2022-09-23T00:59:28.998Z,97.27
2022-09-23T01:01:58.197Z,97.43
2022-09-23T01:04:27.238Z,97.37
2022-09-23T01:06:54.487Z,96.94
2022-09-23T01:09:22.624Z,96.82
2022-09-23T01:12:04.442Z,97.22
2022-09-23T01:14:50.153Z,97.14
2022-09-23T01:17:39.716Z,96.41
2022-09-23T01:20:42.114Z,96.47
2022-09-23T01:23:34.452Z,96.78
2022-09-23T01:26:40.946Z,96.61
2022-09-23T01:29:49.662Z,96.30
2022-09-23T01:32:31.167Z,96.69
2022-09-23T01:35:26.224Z,96.25
2022-09-23T01:38:17.556Z,96.99
2022-09-23T01:41:03.412Z,96.12
2022-09-23T01:44:00.868Z,96.34
2022-09-23T01:46:32.231Z,96.79
2022-09-23T01:49:16.571Z,96.78
2022-09-23T01:51:48.284Z,97.17
2022-09-23T01:54:26.431Z,97.63
2022-09-23T01:57:38.008Z,96.91
2022-09-23T02:00:25.510Z,97.44
2022-09-23T02:03:15.642Z,96.99
2022-09-23T02:05:50.424Z,96.92
2022-09-23T02:08:24.697Z,97.13
2022-09-23T02:11:08.357Z,96.81
2022-09-23T02:14:04.303Z,97.13
2022-09-23T02:16:41.848Z,96.60
2022-09-23T02:19:17.891Z,97.22
2022-09-23T02:21:49.062Z,96.94
2022-09-23T02:24:19.821Z,96.29
2022-09-23T02:27:03.388Z,96.82
2022-09-23T02:30:02.631Z,96.51
2022-09-23T02:32:43.715Z,96.79
2022-09-23T02:35:29.101Z,96.71
2022-09-23T02:38:31.993Z,96.44
2022-09-23T02:41:14.973Z,96.58
2022-09-23T02:43:57.531Z,96.66
2022-09-23T02:46:24.862Z,96.67
2022-09-23T02:49:04.103Z,97.01
2022-09-23T02:51:37.875Z,96.90
2022-09-23T02:54:07.844Z,97.06
2022-09-23T02:56:37.163Z,96.88
2022-09-23T02:59:04.986Z,96.76
2022-09-23T03:02:08.029Z,97.20
2022-09-23T03:04:59.811Z,96.95
2022-09-23T03:07:42.744Z,97.08
2022-09-23T03:10:28.525Z,96.88
2022-09-23T03:13:29.277Z,96.83
2022-09-23T03:16:11.665Z,96.92
2022-09-23T03:18:47.383Z,96.96
2022-09-23T03:21:32.628Z,97.26
2022-09-23T03:24:02.900Z,97.31
2022-09-23T03:26:34.172Z,97.60
2022-09-23T03:29:04.388Z,97.61
2022-09-23T03:31:33.027Z,97.86
2022-09-23T03:34:01.355Z,97.64
2022-09-23T03:36:52.784Z,97.52
2022-09-23T03:39:36.703Z,97.55
2022-09-23T03:42:20.293Z,97.52
2022-09-23T03:44:48.429Z,97.38
2022-09-23T03:47:16.523Z,97.49
2022-09-23T03:49:48.253Z,97.52
2022-09-23T03:52:16.603Z,97.37
2022-09-23T03:54:43.929Z,97.40
2022-09-23T03:57:11.573Z,97.56
2022-09-23T03:59:39.180Z,97.72
2022-09-23T04:02:07.431Z,97.62
2022-09-23T04:04:36.963Z,97.94
2022-09-23T04:07:04.170Z,98.20
2022-09-23T04:09:31.657Z,98.12
2022-09-23T04:11:58.953Z,98.28
2022-09-23T04:14:26.265Z,98.28
2022-09-23T04:16:53.544Z,98.25
2022-09-23T04:19:20.846Z,97.82
2022-09-23T04:21:48.253Z,97.83
2022-09-23T04:24:15.878Z,97.94
2022-09-23T04:26:43.327Z,98.12
2022-09-23T04:29:11.493Z,97.71
2022-09-23T04:31:39.251Z,97.86
2022-09-23T04:34:06.938Z,97.60
2022-09-23T04:36:38.893Z,97.54
2022-09-23T04:39:06.481Z,97.86
2022-09-23T04:41:33.791Z,97.76
2022-09-23T04:44:01.077Z,97.91
2022-09-23T04:46:28.358Z,97.93
2022-09-23T04:48:55.684Z,98.01
2022-09-23T04:51:24.986Z,98.01
2022-09-23T04:53:53.208Z,97.83
2022-09-23T04:56:22.812Z,98.08
2022-09-23T04:58:50.598Z,98.11
2022-09-23T05:01:27.122Z,98.15
2022-09-23T05:03:59.693Z,97.66
2022-09-23T05:06:26.954Z,98.30
2022-09-23T05:08:55.794Z,97.99
2022-09-23T05:11:23.632Z,98.00
2022-09-23T05:13:52.716Z,97.85
2022-09-23T05:16:21.088Z,98.42
2022-09-23T05:18:55.068Z,98.53
2022-09-23T05:21:24.075Z,98.48
2022-09-23T05:23:56.591Z,98.06
2022-09-23T05:26:25.750Z,98.31
2022-09-23T05:28:53.856Z,98.46
2022-09-23T05:31:29.037Z,98.70
2022-09-23T05:34:01.256Z,98.51
2022-09-23T05:36:34.227Z,98.74
2022-09-23T05:39:05.055Z,98.87
2022-09-23T05:41:33.931Z,98.59
2022-09-23T05:44:01.670Z,98.66
2022-09-23T05:46:30.549Z,98.77
2022-09-23T05:49:02.623Z,98.42
2022-09-23T05:51:31.484Z,98.58
2022-09-23T05:54:00.609Z,98.39
2022-09-23T05:56:29.225Z,98.70
2022-09-23T05:58:58.380Z,98.54
2022-09-23T06:01:28.220Z,99.08
2022-09-23T06:03:57.233Z,99.18
2022-09-23T06:06:30.449Z,99.56
2022-09-23T06:08:59.335Z,98.99
2022-09-23T06:11:27.366Z,99.35
2022-09-23T06:14:02.534Z,99.72
2022-09-23T06:16:34.776Z,99.84
2022-09-23T06:19:06.747Z,99.36
2022-09-23T06:21:36.184Z,99.43
2022-09-23T06:24:04.058Z,98.96
2022-09-23T06:26:34.899Z,99.18
2022-09-23T06:29:02.869Z,99.29
2022-09-23T06:31:34.147Z,99.81
2022-09-23T06:34:11.581Z,99.76
2022-09-23T06:36:49.782Z,99.41
2022-09-23T06:39:17.300Z,99.09
2022-09-23T06:41:45.448Z,98.58
2022-09-23T06:44:13.724Z,98.70
2022-09-23T06:46:41.189Z,98.33
2022-09-23T06:49:09.847Z,97.09
2022-09-23T06:51:37.082Z,95.70
2022-09-23T06:54:04.704Z,95.06
2022-09-23T06:56:36.350Z,92.91
2022-09-23T06:59:07.341Z,92.14
2022-09-23T07:01:35.061Z,91.80
2022-09-23T07:04:02.665Z,90.81
2022-09-23T07:06:29.974Z,89.71
2022-09-23T07:08:57.208Z,89.50
2022-09-23T07:11:24.407Z,89.19
2022-09-23T07:13:51.658Z,88.38
2022-09-23T07:16:19.018Z,87.73
2022-09-23T07:18:47.101Z,87.28
2022-09-23T07:21:18.445Z,86.15
2022-09-23T07:23:50.426Z,85.96
2022-09-23T07:26:19.146Z,85.63
2022-09-23T07:28:46.443Z,84.39
2022-09-23T07:31:22.254Z,84.62
2022-09-23T07:33:57.667Z,84.31
2022-09-23T07:36:27.917Z,83.69
2022-09-23T07:39:00.973Z,83.10
2022-09-23T07:41:29.408Z,83.18
2022-09-23T07:43:59.075Z,82.65
2022-09-23T07:46:28.526Z,81.74
2022-09-23T07:48:55.877Z,81.77
2022-09-23T07:51:26.391Z,82.36
2022-09-23T07:53:54.927Z,81.56
2022-09-23T07:56:27.227Z,81.24
2022-09-23T07:59:00.879Z,80.10
2022-09-23T08:01:39.542Z,80.50
2022-09-23T08:04:11.867Z,79.92
2022-09-23T08:06:43.490Z,79.61
2022-09-23T08:09:11.705Z,79.90
2022-09-23T08:11:41.931Z,79.19
2022-09-23T08:14:10.961Z,78.80
2022-09-23T08:16:38.675Z,77.65
2022-09-23T08:19:06.163Z,77.27
2022-09-23T08:21:33.527Z,75.93
2022-09-23T08:24:00.881Z,74.77
2022-09-23T08:26:29.221Z,73.55
2022-09-23T08:28:56.630Z,75.16
2022-09-23T08:31:24.296Z,74.58
2022-09-23T08:33:58.964Z,72.91
2022-09-23T08:36:26.888Z,72.47
2022-09-23T08:38:55.237Z,73.38
2022-09-23T08:41:36.340Z,72.99
2022-09-23T08:44:27.022Z,71.71
2022-09-23T08:47:22.853Z,71.20
2022-09-23T08:50:06.738Z,69.77
2022-09-23T08:52:42.946Z,69.35
2022-09-23T08:55:16.638Z,69.79
2022-09-23T08:58:25.879Z,67.41
2022-09-23T09:01:21.893Z,67.20
2022-09-23T09:04:00.976Z,68.98
2022-09-23T09:06:41.868Z,65.56
2022-09-23T09:09:32.623Z,64.55
2022-09-23T09:12:16.240Z,64.37
2022-09-23T09:15:01.102Z,65.07
2022-09-23T09:17:59.368Z,63.53
2022-09-23T09:21:00.821Z,62.50
2022-09-23T09:23:36.102Z,62.34
2022-09-23T09:26:04.755Z,62.79
2022-09-23T09:28:40.967Z,62.11
2022-09-23T09:31:32.562Z,60.88
2022-09-23T09:34:24.002Z,59.66
2022-09-23T09:37:14.847Z,60.37
2022-09-23T09:39:42.101Z,59.75
2022-09-23T09:42:17.618Z,60.50
2022-09-23T09:44:52.616Z,62.09
2022-09-23T09:47:47.758Z,60.94
2022-09-23T09:50:21.696Z,58.09
2022-09-23T09:52:56.584Z,57.86
2022-09-23T09:55:27.223Z,59.93
2022-09-23T09:58:04.236Z,59.90
2022-09-23T10:00:31.353Z,55.19
2022-09-23T10:03:14.762Z,54.23
2022-09-23T10:05:45.116Z,56.00
2022-09-23T10:08:37.020Z,57.11
2022-09-23T10:11:17.479Z,51.34
2022-09-23T10:14:17.639Z,50.82
2022-09-23T10:16:47.166Z,51.19
2022-09-23T10:19:28.773Z,51.99
2022-09-23T10:22:01.984Z,53.26
2022-09-23T10:24:35.607Z,52.53
2022-09-23T10:27:10.223Z,50.35
2022-09-23T10:29:47.877Z,50.31
2022-09-23T10:32:20.758Z,51.79
2022-09-23T10:35:14.128Z,53.67
2022-09-23T10:37:48.212Z,52.24
2022-09-23T10:40:53.508Z,48.86
2022-09-23T10:44:09.286Z,53.01
2022-09-23T10:46:38.801Z,51.98
2022-09-23T10:49:34.592Z,52.10
2022-09-23T10:52:23.220Z,48.78
2022-09-23T10:55:06.797Z,50.92
2022-09-23T10:57:46.420Z,50.53
2022-09-23T11:00:42.467Z,50.63
2022-09-23T11:03:41.331Z,55.90
2022-09-23T11:06:26.627Z,52.39
2022-09-23T11:09:11.882Z,54.25
2022-09-23T11:11:48.750Z,50.98
2022-09-23T11:14:53.301Z,50.42
2022-09-23T11:17:39.069Z,50.91
2022-09-23T11:20:36.193Z,52.55
2022-09-23T11:23:37.901Z,49.55
2022-09-23T11:26:21.292Z,48.92
2022-09-23T11:29:07.245Z,51.17
2022-09-23T11:32:07.728Z,53.03
2022-09-23T11:34:55.028Z,52.46
2022-09-23T11:37:26.251Z,52.86
2022-09-23T11:40:07.508Z,48.32
2022-09-23T11:42:41.259Z,51.39
2022-09-23T11:45:19.037Z,50.47
2022-09-23T11:47:54.909Z,50.09
2022-09-23T11:51:00.903Z,53.84
2022-09-23T11:53:45.599Z,52.14
2022-09-23T11:56:36.001Z,51.06
2022-09-23T11:59:15.948Z,50.59
2022-09-23T12:01:55.101Z,52.63
2022-09-23T12:04:22.727Z,48.97
2022-09-23T12:07:03.840Z,50.00
2022-09-23T12:09:58.538Z,48.31
2022-09-23T12:12:35.971Z,50.14
2022-09-23T12:15:34.573Z,49.08
2022-09-23T12:18:24.041Z,51.58
2022-09-23T12:21:00.372Z,51.95
2022-09-23T12:23:47.365Z,51.58
2022-09-23T12:26:19.844Z,48.15
2022-09-23T12:28:49.841Z,49.19
2022-09-23T12:31:19.670Z,51.65
2022-09-23T12:34:28.527Z,50.59
2022-09-23T12:37:05.568Z,49.79
2022-09-23T12:39:35.517Z,48.29
2022-09-23T12:42:12.358Z,49.59
2022-09-23T12:44:41.904Z,47.28
2022-09-23T12:47:14.997Z,49.05
2022-09-23T12:49:43.814Z,47.76
2022-09-23T12:52:16.966Z,48.40
2022-09-23T12:54:49.479Z,50.88
2022-09-23T12:57:36.562Z,48.79
2022-09-23T13:00:07.187Z,48.49
2022-09-23T13:02:37.716Z,46.61
2022-09-23T13:05:40.998Z,46.85
2022-09-23T13:08:19.849Z,46.69
2022-09-23T13:10:50.107Z,51.63
2022-09-23T13:13:32.370Z,49.63
2022-09-23T13:16:22.138Z,49.47
2022-09-23T13:19:05.051Z,49.48
2022-09-23T13:21:47.226Z,50.62
2022-09-23T13:24:23.269Z,48.75
2022-09-23T13:26:56.081Z,52.38
2022-09-23T13:29:37.933Z,47.53
2022-09-23T13:32:06.314Z,47.02
2022-09-23T13:34:34.638Z,51.44
2022-09-23T13:37:36.908Z,49.56
2022-09-23T13:40:26.731Z,52.23
2022-09-23T13:43:03.718Z,53.06
2022-09-23T13:45:32.113Z,50.12
2022-09-23T13:48:05.976Z,50.02
2022-09-23T13:50:35.167Z,51.03
2022-09-23T13:53:10.669Z,50.03
2022-09-23T13:55:39.282Z,50.07
2022-09-23T13:58:17.405Z,51.44
2022-09-23T14:00:44.934Z,55.35
2022-09-23T14:03:35.885Z,49.70
2022-09-23T14:06:11.143Z,50.14
2022-09-23T14:08:57.958Z,52.51
2022-09-23T14:11:33.227Z,54.77
2022-09-23T14:14:07.652Z,49.98
2022-09-23T14:16:38.447Z,53.26
2022-09-23T14:19:08.016Z,51.76
2022-09-23T14:21:37.468Z,55.24
2022-09-23T14:24:33.971Z,49.93
2022-09-23T14:27:07.682Z,51.73
2022-09-23T14:29:37.351Z,54.05
2022-09-23T14:32:23.117Z,52.40
2022-09-23T14:35:00.225Z,53.03
2022-09-23T14:38:00.406Z,53.44
2022-09-23T14:40:34.708Z,50.16
2022-09-23T14:43:05.701Z,53.07
2022-09-23T14:45:37.678Z,52.48
2022-09-23T14:48:14.412Z,55.00
2022-09-23T14:50:50.522Z,53.67
2022-09-23T14:53:38.177Z,52.16
2022-09-23T14:56:08.488Z,52.51
2022-09-23T14:59:02.215Z,54.71
2022-09-23T15:01:32.920Z,54.67
2022-09-23T15:04:10.298Z,52.74
2022-09-23T15:06:39.071Z,53.05
2022-09-23T15:09:09.876Z,51.28
2022-09-23T15:11:37.104Z,55.84
2022-09-23T15:14:33.017Z,56.66
2022-09-23T15:16:53.714Z,57.29
2022-09-23T15:19:21.883Z,51.82
2022-09-23T15:21:52.505Z,51.87
2022-09-23T15:24:52.702Z,51.80
2022-09-23T15:27:31.876Z,51.87
2022-09-23T15:30:15.873Z,53.34
2022-09-23T15:32:46.874Z,54.23
2022-09-23T15:35:20.966Z,54.46
2022-09-23T15:37:50.106Z,54.46
2022-09-23T15:40:19.304Z,55.81
2022-09-23T15:42:52.307Z,55.60
2022-09-23T15:45:30.324Z,53.84
2022-09-23T15:48:22.933Z,58.42
2022-09-23T15:50:51.012Z,55.88
2022-09-23T15:53:26.127Z,53.50
2022-09-23T15:55:58.548Z,55.15
2022-09-23T15:58:26.065Z,54.14
2022-09-23T16:00:56.758Z,53.01
2022-09-23T16:03:31.068Z,52.42
2022-09-23T16:06:01.922Z,54.85
2022-09-23T16:08:33.103Z,55.74
2022-09-23T16:11:00.618Z,54.10
2022-09-23T16:13:28.046Z,53.82
2022-09-23T16:15:56.326Z,54.77
2022-09-23T16:18:23.619Z,53.86
2022-09-23T16:20:51.205Z,54.79
2022-09-23T16:23:35.831Z,55.47
2022-09-23T16:26:10.491Z,57.97
2022-09-23T16:28:37.920Z,58.19
2022-09-23T16:31:05.331Z,58.01
2022-09-23T16:33:32.726Z,58.46
2022-09-23T16:36:00.964Z,56.89
2022-09-23T16:38:29.327Z,57.79
2022-09-23T16:40:59.435Z,58.41
2022-09-23T16:43:39.483Z,58.01
2022-09-23T16:46:15.252Z,59.98
2022-09-23T16:48:45.007Z,60.24
2022-09-23T16:51:20.829Z,60.63
2022-09-23T16:53:49.377Z,61.53
2022-09-23T16:56:17.703Z,61.01
2022-09-23T16:58:45.656Z,63.17
2022-09-23T17:01:33.893Z,63.61
2022-09-23T17:04:01.332Z,64.82
2022-09-23T17:06:29.042Z,64.39
2022-09-23T17:08:56.812Z,63.46
2022-09-23T17:11:24.091Z,63.77
2022-09-23T17:13:51.691Z,64.67
2022-09-23T17:16:25.053Z,64.86
2022-09-23T17:18:55.567Z,65.97
2022-09-23T17:21:26.813Z,65.68
2022-09-23T17:23:57.863Z,64.94
2022-09-23T17:26:26.479Z,65.38
2022-09-23T17:28:55.031Z,66.59
2022-09-23T17:31:23.636Z,65.98
2022-09-23T17:33:51.688Z,67.31
2022-09-23T17:36:19.559Z,66.77
2022-09-23T17:38:48.232Z,66.34
2022-09-23T17:41:17.242Z,67.05
2022-09-23T17:43:46.798Z,67.08
2022-09-23T17:46:18.192Z,66.80
2022-09-23T17:48:47.072Z,66.70
2022-09-23T17:51:17.389Z,67.22
2022-09-23T17:53:46.945Z,66.99
2022-09-23T17:56:15.838Z,67.92
2022-09-23T17:58:45.218Z,68.45
2022-09-23T18:01:17.593Z,68.85
2022-09-23T18:03:45.229Z,69.66
2022-09-23T18:06:14.114Z,69.76
2022-09-23T18:08:42.647Z,70.05
2022-09-23T18:11:25.151Z,70.14
2022-09-23T18:13:54.535Z,70.36
2022-09-23T18:16:24.066Z,70.58
2022-09-23T18:18:59.077Z,70.84
2022-09-23T18:21:36.195Z,70.72
2022-09-23T18:24:28.485Z,70.52
2022-09-23T18:26:51.216Z,71.08
2022-09-23T18:29:18.701Z,70.86
2022-09-23T18:31:49.127Z,70.87
2022-09-23T18:34:17.124Z,70.74
2022-09-23T18:36:44.777Z,71.60
2022-09-23T18:39:12.161Z,71.90
2022-09-23T18:41:39.392Z,71.55
2022-09-23T18:44:06.810Z,71.69
2022-09-23T18:46:34.384Z,72.18
2022-09-23T18:49:20.601Z,72.76
2022-09-23T18:51:54.214Z,73.36
2022-09-23T18:54:25.435Z,73.22
2022-09-23T18:56:52.912Z,73.19
2022-09-23T18:59:23.888Z,73.45
2022-09-23T19:01:54.571Z,73.92
2022-09-23T19:04:26.179Z,73.83
2022-09-23T19:06:56.280Z,74.37
2022-09-23T19:09:25.959Z,74.90
2022-09-23T19:11:53.816Z,75.21
2022-09-23T19:14:21.337Z,74.66
2022-09-23T19:16:52.073Z,74.37
2022-09-23T19:19:19.311Z,74.07
2022-09-23T19:21:46.756Z,73.93
2022-09-23T19:24:19.731Z,74.08
2022-09-23T19:26:47.249Z,74.84
2022-09-23T19:29:24.124Z,74.87
2022-09-23T19:31:51.597Z,74.35
2022-09-23T19:34:23.569Z,74.86
2022-09-23T19:36:52.765Z,74.75
2022-09-23T19:39:22.272Z,75.18
2022-09-23T19:41:50.533Z,75.00
2022-09-23T19:44:19.846Z,75.37
2022-09-23T19:46:53.625Z,75.26
2022-09-23T19:49:24.739Z,75.88
2022-09-23T19:51:52.947Z,76.07
2022-09-23T19:54:20.848Z,76.52
2022-09-23T19:56:51.534Z,76.98
2022-09-23T19:59:19.583Z,77.40
2022-09-23T20:01:50.200Z,76.96
2022-09-23T20:04:17.490Z,77.22
2022-09-23T20:06:46.063Z,76.95
2022-09-23T20:09:14.568Z,77.21
2022-09-23T20:11:44.147Z,77.15
2022-09-23T20:14:11.831Z,77.42
2022-09-23T20:16:40.465Z,78.54
2022-09-23T20:19:07.777Z,78.26
2022-09-23T20:21:35.570Z,77.96
2022-09-23T20:24:05.223Z,77.17
2022-09-23T20:26:51.130Z,77.73
2022-09-23T20:29:18.485Z,78.43
2022-09-23T20:31:46.119Z,78.40
2022-09-23T20:34:13.461Z,78.17
2022-09-23T20:36:41.740Z,78.28
2022-09-23T20:39:10.176Z,79.35
2022-09-23T20:41:39.263Z,78.70
2022-09-23T20:44:09.771Z,78.77
2022-09-23T20:46:37.300Z,78.78
2022-09-23T20:49:07.899Z,78.38
2022-09-23T20:51:36.366Z,78.42
2022-09-23T20:54:04.221Z,79.06
2022-09-23T20:56:31.816Z,78.47
2022-09-23T20:59:03.111Z,79.57
2022-09-23T21:01:35.175Z,78.54
2022-09-23T21:04:04.885Z,77.93
2022-09-23T21:06:33.591Z,77.96
2022-09-23T21:09:00.836Z,77.54
2022-09-23T21:11:29.249Z,77.35
2022-09-23T21:13:56.727Z,77.47
2022-09-23T21:16:24.506Z,78.04
2022-09-23T21:18:52.638Z,77.83
2022-09-23T21:21:22.039Z,78.52
2022-09-23T21:23:50.992Z,78.05
2022-09-23T21:26:20.446Z,77.66
2022-09-23T21:28:49.839Z,78.03
2022-09-23T21:31:23.219Z,77.87
2022-09-23T21:34:01.565Z,77.90
2022-09-23T21:36:39.250Z,78.47
2022-09-23T21:39:07.837Z,78.30
2022-09-23T21:41:35.344Z,77.95
2022-09-23T21:44:04.470Z,78.22
2022-09-23T21:46:33.751Z,78.26
2022-09-23T21:49:03.461Z,78.41
2022-09-23T21:51:35.170Z,79.14
2022-09-23T21:54:02.333Z,78.58
2022-09-23T21:56:32.767Z,79.03
2022-09-23T21:59:00.167Z,78.62
2022-09-23T22:01:35.043Z,79.47
2022-09-23T22:04:07.762Z,78.62
2022-09-23T22:06:38.141Z,79.05
2022-09-23T22:09:08.885Z,78.66
2022-09-23T22:12:12.629Z,78.77
2022-09-23T22:14:40.203Z,79.04
2022-09-23T22:17:10.289Z,80.07
2022-09-23T22:19:44.284Z,79.98
2022-09-23T22:22:14.605Z,80.32
2022-09-23T22:24:42.781Z,79.89
2022-09-23T22:27:10.802Z,80.91
2022-09-23T22:29:56.580Z,79.86
2022-09-23T22:32:43.465Z,79.81
2022-09-23T22:35:17.657Z,79.83
2022-09-23T22:37:45.530Z,80.03
2022-09-23T22:40:14.711Z,79.95
2022-09-23T22:42:42.209Z,79.66
2022-09-23T22:45:10.576Z,80.16
2022-09-23T22:47:39.542Z,80.01
2022-09-23T22:50:08.723Z,79.49
2022-09-23T22:52:36.159Z,79.78
2022-09-23T22:55:03.998Z,80.45
2022-09-23T22:57:31.302Z,80.27
2022-09-23T22:59:58.479Z,80.19
2022-09-23T23:02:25.907Z,80.44
2022-09-23T23:04:53.335Z,81.27
2022-09-23T23:07:21.520Z,80.87
2022-09-23T23:09:50.442Z,81.25
2022-09-23T23:12:20.018Z,80.82
2022-09-23T23:14:48.089Z,80.41
2022-09-23T23:17:15.630Z,80.07
2022-09-23T23:19:42.772Z,80.82
2022-09-23T23:22:09.926Z,80.89
2022-09-23T23:24:37.222Z,80.76
2022-09-23T23:27:04.433Z,80.76
2022-09-23T23:29:31.581Z,81.60
2022-09-23T23:31:58.738Z,81.14
2022-09-23T23:34:25.911Z,80.93
2022-09-23T23:36:56.511Z,81.32
2022-09-23T23:39:24.660Z,81.66
2022-09-23T23:41:53.312Z,81.70
2022-09-23T23:44:20.510Z,81.96
2022-09-23T23:46:49.207Z,81.04
2022-09-23T23:49:16.545Z,81.75
2022-09-23T23:51:43.750Z,82.18
2022-09-23T23:54:12.190Z,81.31
2022-09-23T23:56:39.352Z,81.31
2022-09-23T23:59:06.617Z,81.90
